Henri Treimuth

Ampler Development Team

Information
Nationality Estonia
Born12th September 2001 (20)

2021202020192018

Ampler Development Team (Continental) Race days: 21 Distance: 2.516km
Date Pos GC Race CAT UCI
2021-08-22 22.08 DNF Tour de l'Avenir 2.NCShow more
2021-08-02 02.08 DNF Kreiz Breizh Elites 2.2Show more
2021-07-25 25.07 92 GP de Perenchies 1.2Show more
2021-07-20 20.07 DNF Etoile d'Or 2.NCShow more
2021-06-12 12.06 DNF CN EST/LAT/LTU RR-U23 CN
2021-06-06 06.06 75 - Course de la Paix (U23) 2.NCShow more
2021-06-12 12.06 DNF CN Estonia RR-U23 CN
2021-05-22 22.05 13 CN Criterium-Elva CN
2021-05-29 29.05 DNF Tour of Estonia 2.1Show more
2021-06-06 06.06 21 - Course de la Paix (U23) | Youth 2.NC
2021-08-19 19.08 DNS Tour de l'Avenir | 6th stage 2.NC
2021-08-18 18.08 141 130 Tour de l'Avenir | 5th stage 2.NC
2021-08-17 17.08 79 124 Tour de l'Avenir | 4th stage 2.NC
2021-08-16 16.08 132 135 Tour de l'Avenir | 3rd stage 2.NC
2021-08-15 15.08 14 137 Tour de l'Avenir | 2nd stage | TTT 2.NC
2021-08-14 14.08 141 147 Tour de l'Avenir | 1st stage 2.NC
2021-08-13 13.08 102 102 Tour de l'Avenir | Prologue 2.NC
2021-08-01 01.08 DNF Kreiz Breizh Elites | 3rd stage 2.2
2021-07-31 31.07 123 125 Kreiz Breizh Elites | 2nd stage 2.2
2021-07-30 30.07 4 134 Kreiz Breizh Elites | 1st stage | TTT 2.2
2021-07-19 19.07 DNF Etoile d'Or | 2nd stage 2.NC
2021-07-19 19.07 97 97 Etoile d'Or | 1st stage 2.NC
2021-06-06 06.06 79 75 Course de la Paix (U23) | 3rd stage 2.NC
2021-06-05 05.06 66 67 Course de la Paix (U23) | 2nd stage 2.NC
2021-06-04 04.06 55 24 Course de la Paix (U23) | 1st stage 2.NC
2021-06-03 03.06 27 27 Course de la Paix (U23) | Prologue 2.NC
2021-05-29 29.05 DNF Tour of Estonia | 2nd stage 2.1
2021-05-28 28.05 29 29 Tour of Estonia | 1st stage 2.1